sensor_id;sensor_type;location;lat;lon;timestamp;P1;durP1;ratioP1;P2;durP2;ratioP2
51525;SDS011;37611;51.794;21.590;2023-05-28T00:01:15;8.40;;;3.70;;
51525;SDS011;37611;51.794;21.590;2023-05-28T00:05:40;10.90;;;4.50;;
51525;SDS011;37611;51.794;21.590;2023-05-28T00:14:20;6.40;;;3.30;;
51525;SDS011;37611;51.794;21.590;2023-05-28T00:19:03;8.00;;;3.70;;
51525;SDS011;37611;51.794;21.590;2023-05-28T00:37:23;6.70;;;3.40;;
51525;SDS011;37611;51.794;21.590;2023-05-28T00:41:25;8.70;;;2.80;;
51525;SDS011;37611;51.794;21.590;2023-05-28T00:45:31;6.80;;;3.00;;
51525;SDS011;37611;51.794;21.590;2023-05-28T00:49:33;8.20;;;3.40;;
51525;SDS011;37611;51.794;21.590;2023-05-28T00:53:56;4.50;;;2.60;;
51525;SDS011;37611;51.794;21.590;2023-05-28T00:57:58;7.60;;;3.50;;
51525;SDS011;37611;51.794;21.590;2023-05-28T01:02:27;5.80;;;3.10;;
51525;SDS011;37611;51.794;21.590;2023-05-28T01:06:29;6.00;;;3.60;;
51525;SDS011;37611;51.794;21.590;2023-05-28T01:10:33;6.30;;;3.40;;
51525;SDS011;37611;51.794;21.590;2023-05-28T01:14:43;6.40;;;3.50;;
51525;SDS011;37611;51.794;21.590;2023-05-28T01:18:49;8.90;;;4.20;;
51525;SDS011;37611;51.794;21.590;2023-05-28T01:23:00;7.10;;;3.70;;
51525;SDS011;37611;51.794;21.590;2023-05-28T01:27:09;6.40;;;2.90;;
51525;SDS011;37611;51.794;21.590;2023-05-28T01:31:16;6.70;;;3.60;;
51525;SDS011;37611;51.794;21.590;2023-05-28T01:35:18;5.70;;;4.10;;
51525;SDS011;37611;51.794;21.590;2023-05-28T01:39:32;7.60;;;4.00;;
51525;SDS011;37611;51.794;21.590;2023-05-28T01:43:55;7.50;;;4.20;;
51525;SDS011;37611;51.794;21.590;2023-05-28T01:48:00;7.20;;;3.70;;
51525;SDS011;37611;51.794;21.590;2023-05-28T01:52:08;7.30;;;3.00;;
51525;SDS011;37611;51.794;21.590;2023-05-28T01:56:10;5.20;;;3.10;;
51525;SDS011;37611;51.794;21.590;2023-05-28T02:00:32;8.50;;;3.40;;
51525;SDS011;37611;51.794;21.590;2023-05-28T02:09:33;9.70;;;4.60;;
51525;SDS011;37611;51.794;21.590;2023-05-28T02:13:42;7.50;;;4.40;;
51525;SDS011;37611;51.794;21.590;2023-05-28T02:22:11;9.60;;;4.60;;
51525;SDS011;37611;51.794;21.590;2023-05-28T02:26:13;7.70;;;4.80;;
51525;SDS011;37611;51.794;21.590;2023-05-28T02:30:16;8.90;;;4.10;;
51525;SDS011;37611;51.794;21.590;2023-05-28T02:34:18;5.60;;;3.30;;
51525;SDS011;37611;51.794;21.590;2023-05-28T02:38:20;4.90;;;2.20;;
51525;SDS011;37611;51.794;21.590;2023-05-28T02:42:28;5.70;;;2.50;;
51525;SDS011;37611;51.794;21.590;2023-05-28T02:46:30;6.10;;;2.60;;
51525;SDS011;37611;51.794;21.590;2023-05-28T02:50:52;4.40;;;2.20;;
51525;SDS011;37611;51.794;21.590;2023-05-28T02:54:54;4.30;;;2.00;;
51525;SDS011;37611;51.794;21.590;2023-05-28T02:59:05;4.10;;;2.30;;
51525;SDS011;37611;51.794;21.590;2023-05-28T03:03:07;6.50;;;2.70;;
51525;SDS011;37611;51.794;21.590;2023-05-28T03:07:39;4.50;;;2.20;;
51525;SDS011;37611;51.794;21.590;2023-05-28T03:16:53;5.80;;;2.60;;
51525;SDS011;37611;51.794;21.590;2023-05-28T03:21:00;4.30;;;3.10;;
51525;SDS011;37611;51.794;21.590;2023-05-28T03:25:11;4.70;;;2.70;;
51525;SDS011;37611;51.794;21.590;2023-05-28T03:29:15;6.10;;;3.10;;
51525;SDS011;37611;51.794;21.590;2023-05-28T03:37:49;4.30;;;2.60;;
51525;SDS011;37611;51.794;21.590;2023-05-28T03:42:11;5.00;;;1.70;;
51525;SDS011;37611;51.794;21.590;2023-05-28T03:51:34;6.10;;;3.60;;
51525;SDS011;37611;51.794;21.590;2023-05-28T03:55:47;6.50;;;4.00;;
51525;SDS011;37611;51.794;21.590;2023-05-28T04:00:19;8.10;;;3.60;;
51525;SDS011;37611;51.794;21.590;2023-05-28T04:13:52;9.30;;;2.80;;
51525;SDS011;37611;51.794;21.590;2023-05-28T04:18:38;2.70;;;2.10;;
51525;SDS011;37611;51.794;21.590;2023-05-28T04:23:03;4.10;;;2.20;;
51525;SDS011;37611;51.794;21.590;2023-05-28T04:32:32;5.50;;;3.20;;
51525;SDS011;37611;51.794;21.590;2023-05-28T04:36:34;6.30;;;2.20;;
51525;SDS011;37611;51.794;21.590;2023-05-28T04:40:38;4.80;;;2.50;;
51525;SDS011;37611;51.794;21.590;2023-05-28T04:44:48;6.10;;;2.60;;
51525;SDS011;37611;51.794;21.590;2023-05-28T04:49:13;8.20;;;2.20;;
51525;SDS011;37611;51.794;21.590;2023-05-28T04:53:40;9.60;;;2.50;;
51525;SDS011;37611;51.794;21.590;2023-05-28T04:58:17;7.60;;;2.40;;
51525;SDS011;37611;51.794;21.590;2023-05-28T05:03:08;5.70;;;2.00;;
51525;SDS011;37611;51.794;21.590;2023-05-28T05:17:20;3.60;;;1.60;;
51525;SDS011;37611;51.794;21.590;2023-05-28T05:35:44;8.20;;;2.20;;
51525;SDS011;37611;51.794;21.590;2023-05-28T05:49:19;5.40;;;1.90;;
51525;SDS011;37611;51.794;21.590;2023-05-28T05:57:56;5.40;;;2.20;;
51525;SDS011;37611;51.794;21.590;2023-05-28T06:02:28;3.30;;;1.60;;
51525;SDS011;37611;51.794;21.590;2023-05-28T06:06:34;5.30;;;2.20;;
51525;SDS011;37611;51.794;21.590;2023-05-28T06:10:50;6.50;;;1.60;;
51525;SDS011;37611;51.794;21.590;2023-05-28T06:14:52;3.70;;;1.30;;
51525;SDS011;37611;51.794;21.590;2023-05-28T06:18:55;10.90;;;2.10;;
51525;SDS011;37611;51.794;21.590;2023-05-28T06:23:27;4.90;;;2.30;;
51525;SDS011;37611;51.794;21.590;2023-05-28T06:27:47;5.30;;;2.20;;
51525;SDS011;37611;51.794;21.590;2023-05-28T06:32:21;5.80;;;1.70;;
51525;SDS011;37611;51.794;21.590;2023-05-28T06:36:40;3.40;;;1.30;;
51525;SDS011;37611;51.794;21.590;2023-05-28T06:40:45;4.10;;;1.40;;
51525;SDS011;37611;51.794;21.590;2023-05-28T06:45:10;5.70;;;1.40;;
51525;SDS011;37611;51.794;21.590;2023-05-28T06:49:52;5.70;;;1.60;;
51525;SDS011;37611;51.794;21.590;2023-05-28T06:53:58;3.50;;;1.40;;
51525;SDS011;37611;51.794;21.590;2023-05-28T07:02:15;5.20;;;1.60;;
51525;SDS011;37611;51.794;21.590;2023-05-28T07:06:40;6.30;;;2.70;;
51525;SDS011;37611;51.794;21.590;2023-05-28T07:11:26;3.80;;;1.40;;
51525;SDS011;37611;51.794;21.590;2023-05-28T07:15:28;5.20;;;1.50;;
51525;SDS011;37611;51.794;21.590;2023-05-28T07:19:59;5.10;;;1.30;;
51525;SDS011;37611;51.794;21.590;2023-05-28T07:24:10;3.10;;;1.30;;
51525;SDS011;37611;51.794;21.590;2023-05-28T07:32:55;3.90;;;1.00;;
51525;SDS011;37611;51.794;21.590;2023-05-28T07:37:00;4.00;;;1.10;;
51525;SDS011;37611;51.794;21.590;2023-05-28T07:41:42;5.20;;;1.50;;
51525;SDS011;37611;51.794;21.590;2023-05-28T07:45:54;7.70;;;1.50;;
51525;SDS011;37611;51.794;21.590;2023-05-28T07:49:59;5.10;;;1.50;;
51525;SDS011;37611;51.794;21.590;2023-05-28T07:54:14;4.60;;;1.30;;
51525;SDS011;37611;51.794;21.590;2023-05-28T08:02:58;4.00;;;1.30;;
51525;SDS011;37611;51.794;21.590;2023-05-28T08:07:14;5.20;;;1.40;;
51525;SDS011;37611;51.794;21.590;2023-05-28T08:11:22;4.30;;;1.10;;
51525;SDS011;37611;51.794;21.590;2023-05-28T08:16:03;5.80;;;1.10;;
51525;SDS011;37611;51.794;21.590;2023-05-28T08:20:35;3.10;;;1.40;;
51525;SDS011;37611;51.794;21.590;2023-05-28T08:24:47;2.00;;;1.00;;
51525;SDS011;37611;51.794;21.590;2023-05-28T08:28:52;7.20;;;1.40;;
51525;SDS011;37611;51.794;21.590;2023-05-28T08:32:54;3.20;;;1.30;;
51525;SDS011;37611;51.794;21.590;2023-05-28T08:36:56;11.60;;;1.50;;
51525;SDS011;37611;51.794;21.590;2023-05-28T08:40:58;4.50;;;1.30;;
51525;SDS011;37611;51.794;21.590;2023-05-28T08:45:04;3.10;;;1.20;;
51525;SDS011;37611;51.794;21.590;2023-05-28T08:49:07;5.40;;;1.00;;
51525;SDS011;37611;51.794;21.590;2023-05-28T08:53:15;4.20;;;1.20;;
51525;SDS011;37611;51.794;21.590;2023-05-28T08:57:34;2.00;;;0.70;;
51525;SDS011;37611;51.794;21.590;2023-05-28T09:01:36;4.90;;;1.30;;
51525;SDS011;37611;51.794;21.590;2023-05-28T09:05:51;5.00;;;1.00;;
51525;SDS011;37611;51.794;21.590;2023-05-28T09:14:29;5.30;;;1.90;;
51525;SDS011;37611;51.794;21.590;2023-05-28T09:19:15;4.50;;;1.20;;
51525;SDS011;37611;51.794;21.590;2023-05-28T09:23:20;7.80;;;1.10;;
51525;SDS011;37611;51.794;21.590;2023-05-28T09:27:52;6.20;;;1.20;;
51525;SDS011;37611;51.794;21.590;2023-05-28T09:32:18;4.40;;;1.00;;
51525;SDS011;37611;51.794;21.590;2023-05-28T09:36:24;6.30;;;1.30;;
51525;SDS011;37611;51.794;21.590;2023-05-28T09:40:29;7.40;;;1.20;;
51525;SDS011;37611;51.794;21.590;2023-05-28T09:44:34;5.80;;;2.60;;
51525;SDS011;37611;51.794;21.590;2023-05-28T09:48:49;3.70;;;1.20;;
51525;SDS011;37611;51.794;21.590;2023-05-28T09:58:15;3.40;;;1.10;;
51525;SDS011;37611;51.794;21.590;2023-05-28T10:07:24;3.40;;;1.20;;
51525;SDS011;37611;51.794;21.590;2023-05-28T10:11:30;5.30;;;1.20;;
51525;SDS011;37611;51.794;21.590;2023-05-28T10:15:36;2.90;;;1.20;;
51525;SDS011;37611;51.794;21.590;2023-05-28T10:19:38;3.80;;;1.10;;
51525;SDS011;37611;51.794;21.590;2023-05-28T10:23:42;8.80;;;1.10;;
51525;SDS011;37611;51.794;21.590;2023-05-28T10:27:48;3.70;;;1.10;;
51525;SDS011;37611;51.794;21.590;2023-05-28T10:32:00;4.70;;;1.40;;
51525;SDS011;37611;51.794;21.590;2023-05-28T10:36:09;4.10;;;1.50;;
51525;SDS011;37611;51.794;21.590;2023-05-28T10:40:22;4.10;;;1.20;;
51525;SDS011;37611;51.794;21.590;2023-05-28T10:44:33;2.70;;;0.80;;
51525;SDS011;37611;51.794;21.590;2023-05-28T10:58:24;5.90;;;1.00;;
51525;SDS011;37611;51.794;21.590;2023-05-28T11:02:34;5.00;;;1.10;;
51525;SDS011;37611;51.794;21.590;2023-05-28T11:11:20;3.10;;;1.20;;
51525;SDS011;37611;51.794;21.590;2023-05-28T11:15:22;3.30;;;1.30;;
51525;SDS011;37611;51.794;21.590;2023-05-28T11:19:24;2.20;;;0.90;;
51525;SDS011;37611;51.794;21.590;2023-05-28T11:23:29;2.90;;;1.50;;
51525;SDS011;37611;51.794;21.590;2023-05-28T11:27:35;6.40;;;1.20;;
51525;SDS011;37611;51.794;21.590;2023-05-28T11:31:39;3.10;;;1.50;;
51525;SDS011;37611;51.794;21.590;2023-05-28T11:35:41;6.10;;;1.50;;
51525;SDS011;37611;51.794;21.590;2023-05-28T11:39:50;4.00;;;0.90;;
51525;SDS011;37611;51.794;21.590;2023-05-28T11:43:53;7.30;;;1.30;;
51525;SDS011;37611;51.794;21.590;2023-05-28T11:47:55;3.40;;;0.90;;
51525;SDS011;37611;51.794;21.590;2023-05-28T11:52:03;2.40;;;1.20;;
51525;SDS011;37611;51.794;21.590;2023-05-28T11:56:15;5.40;;;1.50;;
51525;SDS011;37611;51.794;21.590;2023-05-28T12:00:17;4.60;;;1.20;;
51525;SDS011;37611;51.794;21.590;2023-05-28T12:04:21;4.30;;;1.40;;
51525;SDS011;37611;51.794;21.590;2023-05-28T12:08:27;3.30;;;0.90;;
51525;SDS011;37611;51.794;21.590;2023-05-28T12:12:29;1.80;;;1.10;;
51525;SDS011;37611;51.794;21.590;2023-05-28T12:16:32;2.50;;;1.20;;
51525;SDS011;37611;51.794;21.590;2023-05-28T12:20:46;3.00;;;1.00;;
51525;SDS011;37611;51.794;21.590;2023-05-28T12:24:51;4.00;;;1.20;;
51525;SDS011;37611;51.794;21.590;2023-05-28T12:28:55;1.90;;;1.00;;
51525;SDS011;37611;51.794;21.590;2023-05-28T12:32:56;5.90;;;1.50;;
51525;SDS011;37611;51.794;21.590;2023-05-28T12:36:58;2.30;;;1.00;;
51525;SDS011;37611;51.794;21.590;2023-05-28T12:41:00;5.20;;;1.20;;
51525;SDS011;37611;51.794;21.590;2023-05-28T12:45:02;4.90;;;1.30;;
51525;SDS011;37611;51.794;21.590;2023-05-28T12:49:04;6.40;;;1.10;;
51525;SDS011;37611;51.794;21.590;2023-05-28T12:53:05;2.00;;;1.00;;
51525;SDS011;37611;51.794;21.590;2023-05-28T12:57:11;6.30;;;1.20;;
51525;SDS011;37611;51.794;21.590;2023-05-28T13:01:15;3.10;;;1.30;;
51525;SDS011;37611;51.794;21.590;2023-05-28T13:05:17;2.80;;;1.10;;
51525;SDS011;37611;51.794;21.590;2023-05-28T13:09:19;3.80;;;1.00;;
51525;SDS011;37611;51.794;21.590;2023-05-28T13:13:21;2.60;;;1.30;;
51525;SDS011;37611;51.794;21.590;2023-05-28T13:17:23;2.40;;;1.00;;
51525;SDS011;37611;51.794;21.590;2023-05-28T13:21:25;4.20;;;1.40;;
51525;SDS011;37611;51.794;21.590;2023-05-28T13:25:27;3.10;;;1.10;;
51525;SDS011;37611;51.794;21.590;2023-05-28T13:29:32;6.50;;;1.30;;
51525;SDS011;37611;51.794;21.590;2023-05-28T13:33:36;3.20;;;1.30;;
51525;SDS011;37611;51.794;21.590;2023-05-28T13:37:38;2.80;;;1.20;;
51525;SDS011;37611;51.794;21.590;2023-05-28T13:41:40;3.90;;;1.40;;
51525;SDS011;37611;51.794;21.590;2023-05-28T13:45:42;5.60;;;1.80;;
51525;SDS011;37611;51.794;21.590;2023-05-28T13:49:43;4.80;;;1.10;;
51525;SDS011;37611;51.794;21.590;2023-05-28T13:53:45;4.50;;;1.30;;
51525;SDS011;37611;51.794;21.590;2023-05-28T13:57:48;4.30;;;1.40;;
51525;SDS011;37611;51.794;21.590;2023-05-28T14:01:49;4.10;;;1.20;;
51525;SDS011;37611;51.794;21.590;2023-05-28T14:05:52;5.10;;;1.00;;
51525;SDS011;37611;51.794;21.590;2023-05-28T14:09:54;6.20;;;2.50;;
51525;SDS011;37611;51.794;21.590;2023-05-28T14:13:56;2.20;;;1.20;;
51525;SDS011;37611;51.794;21.590;2023-05-28T14:17:58;3.70;;;1.70;;
51525;SDS011;37611;51.794;21.590;2023-05-28T14:22:07;3.20;;;1.40;;
51525;SDS011;37611;51.794;21.590;2023-05-28T14:26:18;3.50;;;1.70;;
51525;SDS011;37611;51.794;21.590;2023-05-28T14:30:20;7.20;;;1.30;;
51525;SDS011;37611;51.794;21.590;2023-05-28T14:34:22;4.00;;;1.40;;
51525;SDS011;37611;51.794;21.590;2023-05-28T14:38:24;3.90;;;1.30;;
51525;SDS011;37611;51.794;21.590;2023-05-28T14:42:26;4.30;;;1.30;;
51525;SDS011;37611;51.794;21.590;2023-05-28T14:46:28;2.30;;;1.30;;
51525;SDS011;37611;51.794;21.590;2023-05-28T14:50:32;6.50;;;1.00;;
51525;SDS011;37611;51.794;21.590;2023-05-28T14:54:37;3.30;;;1.00;;
51525;SDS011;37611;51.794;21.590;2023-05-28T14:58:43;7.60;;;1.40;;
51525;SDS011;37611;51.794;21.590;2023-05-28T15:02:47;3.00;;;1.30;;
51525;SDS011;37611;51.794;21.590;2023-05-28T15:07:21;5.00;;;1.50;;
51525;SDS011;37611;51.794;21.590;2023-05-28T15:11:21;6.70;;;1.60;;
51525;SDS011;37611;51.794;21.590;2023-05-28T15:15:23;6.10;;;1.50;;
51525;SDS011;37611;51.794;21.590;2023-05-28T15:19:27;3.30;;;1.20;;
51525;SDS011;37611;51.794;21.590;2023-05-28T15:23:38;4.00;;;1.50;;
51525;SDS011;37611;51.794;21.590;2023-05-28T15:27:40;4.80;;;1.30;;
51525;SDS011;37611;51.794;21.590;2023-05-28T15:31:47;3.00;;;1.00;;
51525;SDS011;37611;51.794;21.590;2023-05-28T15:35:50;3.10;;;1.30;;
51525;SDS011;37611;51.794;21.590;2023-05-28T15:40:01;4.30;;;1.50;;
51525;SDS011;37611;51.794;21.590;2023-05-28T15:44:03;5.10;;;1.60;;
51525;SDS011;37611;51.794;21.590;2023-05-28T15:48:15;3.70;;;1.30;;
51525;SDS011;37611;51.794;21.590;2023-05-28T15:52:28;2.90;;;1.50;;
51525;SDS011;37611;51.794;21.590;2023-05-28T15:56:51;2.20;;;1.10;;
51525;SDS011;37611;51.794;21.590;2023-05-28T16:00:53;3.20;;;1.30;;
51525;SDS011;37611;51.794;21.590;2023-05-28T16:05:15;3.80;;;1.20;;
51525;SDS011;37611;51.794;21.590;2023-05-28T16:13:36;7.40;;;1.70;;
51525;SDS011;37611;51.794;21.590;2023-05-28T16:17:52;3.80;;;1.20;;
51525;SDS011;37611;51.794;21.590;2023-05-28T16:21:59;2.70;;;1.40;;
51525;SDS011;37611;51.794;21.590;2023-05-28T16:26:01;4.50;;;1.40;;
51525;SDS011;37611;51.794;21.590;2023-05-28T16:30:04;4.60;;;1.80;;
51525;SDS011;37611;51.794;21.590;2023-05-28T16:34:10;3.60;;;1.60;;
51525;SDS011;37611;51.794;21.590;2023-05-28T16:38:13;6.30;;;1.60;;
51525;SDS011;37611;51.794;21.590;2023-05-28T16:42:15;4.10;;;1.90;;
51525;SDS011;37611;51.794;21.590;2023-05-28T16:46:26;6.20;;;4.50;;
51525;SDS011;37611;51.794;21.590;2023-05-28T16:50:40;8.10;;;4.30;;
51525;SDS011;37611;51.794;21.590;2023-05-28T16:54:54;4.80;;;2.80;;
51525;SDS011;37611;51.794;21.590;2023-05-28T16:59:05;5.50;;;2.90;;
51525;SDS011;37611;51.794;21.590;2023-05-28T17:03:31;9.10;;;3.40;;
51525;SDS011;37611;51.794;21.590;2023-05-28T17:07:35;5.00;;;2.60;;
51525;SDS011;37611;51.794;21.590;2023-05-28T17:11:39;5.30;;;2.80;;
51525;SDS011;37611;51.794;21.590;2023-05-28T17:15:54;7.30;;;3.40;;
51525;SDS011;37611;51.794;21.590;2023-05-28T17:19:56;10.10;;;5.60;;
51525;SDS011;37611;51.794;21.590;2023-05-28T17:24:10;16.30;;;9.50;;
51525;SDS011;37611;51.794;21.590;2023-05-28T17:33:46;24.20;;;14.40;;
51525;SDS011;37611;51.794;21.590;2023-05-28T17:37:50;13.10;;;8.30;;
51525;SDS011;37611;51.794;21.590;2023-05-28T17:42:03;18.80;;;14.00;;
51525;SDS011;37611;51.794;21.590;2023-05-28T17:46:15;36.00;;;32.20;;
51525;SDS011;37611;51.794;21.590;2023-05-28T17:55:11;29.00;;;24.40;;
51525;SDS011;37611;51.794;21.590;2023-05-28T17:59:33;27.80;;;17.80;;
51525;SDS011;37611;51.794;21.590;2023-05-28T18:03:36;37.70;;;28.40;;
51525;SDS011;37611;51.794;21.590;2023-05-28T18:08:00;81.30;;;60.00;;
51525;SDS011;37611;51.794;21.590;2023-05-28T18:12:11;98.80;;;76.10;;
51525;SDS011;37611;51.794;21.590;2023-05-28T18:16:20;56.50;;;42.20;;
51525;SDS011;37611;51.794;21.590;2023-05-28T18:20:58;45.70;;;29.20;;
51525;SDS011;37611;51.794;21.590;2023-05-28T18:39:03;30.10;;;16.80;;
51525;SDS011;37611;51.794;21.590;2023-05-28T18:43:15;28.00;;;15.60;;
51525;SDS011;37611;51.794;21.590;2023-05-28T18:52:58;39.90;;;21.80;;
51525;SDS011;37611;51.794;21.590;2023-05-28T18:57:25;34.80;;;19.50;;
51525;SDS011;37611;51.794;21.590;2023-05-28T19:06:49;51.80;;;29.00;;
51525;SDS011;37611;51.794;21.590;2023-05-28T19:38:41;19.50;;;13.50;;
51525;SDS011;37611;51.794;21.590;2023-05-28T19:48:09;25.30;;;16.30;;
51525;SDS011;37611;51.794;21.590;2023-05-28T20:02:00;34.20;;;20.60;;
51525;SDS011;37611;51.794;21.590;2023-05-28T20:06:38;26.40;;;15.20;;
51525;SDS011;37611;51.794;21.590;2023-05-28T20:55:32;21.50;;;12.40;;
51525;SDS011;37611;51.794;21.590;2023-05-28T20:59:38;16.10;;;9.60;;
51525;SDS011;37611;51.794;21.590;2023-05-28T21:04:08;20.40;;;11.20;;
51525;SDS011;37611;51.794;21.590;2023-05-28T21:13:04;11.70;;;6.20;;
51525;SDS011;37611;51.794;21.590;2023-05-28T21:17:07;11.60;;;7.80;;
51525;SDS011;37611;51.794;21.590;2023-05-28T21:21:54;13.30;;;7.40;;
51525;SDS011;37611;51.794;21.590;2023-05-28T21:26:16;21.10;;;6.70;;
51525;SDS011;37611;51.794;21.590;2023-05-28T21:35:50;10.60;;;5.50;;
51525;SDS011;37611;51.794;21.590;2023-05-28T21:39:55;11.40;;;5.00;;
51525;SDS011;37611;51.794;21.590;2023-05-28T21:48:54;19.20;;;10.00;;
51525;SDS011;37611;51.794;21.590;2023-05-28T22:11:18;8.80;;;4.80;;
51525;SDS011;37611;51.794;21.590;2023-05-28T22:15:56;9.00;;;4.20;;
51525;SDS011;37611;51.794;21.590;2023-05-28T22:20:18;7.90;;;4.50;;
51525;SDS011;37611;51.794;21.590;2023-05-28T22:34:06;7.20;;;4.90;;
51525;SDS011;37611;51.794;21.590;2023-05-28T22:38:37;9.00;;;5.40;;
51525;SDS011;37611;51.794;21.590;2023-05-28T22:43:11;10.00;;;4.70;;
51525;SDS011;37611;51.794;21.590;2023-05-28T22:52:03;8.20;;;4.30;;
51525;SDS011;37611;51.794;21.590;2023-05-28T22:56:11;8.90;;;4.70;;
51525;SDS011;37611;51.794;21.590;2023-05-28T23:09:44;7.30;;;4.20;;
51525;SDS011;37611;51.794;21.590;2023-05-28T23:32:52;5.40;;;3.30;;
